sensor_id;sensor_type;location;lat;lon;timestamp;pressure;altitude;pressure_sealevel;temperature;humidity
80640;BME280;69992;60.170;24.692;2023-12-14T00:01:38;100843.85;;;-9.66;30.80
80640;BME280;69992;60.170;24.692;2023-12-14T00:04:04;100842.35;;;-10.68;30.82
80640;BME280;69992;60.170;24.692;2023-12-14T00:06:29;100843.41;;;-9.79;30.83
80640;BME280;69992;60.170;24.692;2023-12-14T00:08:54;100844.22;;;-9.82;30.84
80640;BME280;69992;60.170;24.692;2023-12-14T00:11:20;100847.65;;;-9.89;30.84
80640;BME280;69992;60.170;24.692;2023-12-14T00:13:45;100848.76;;;-10.86;30.83
80640;BME280;69992;60.170;24.692;2023-12-14T00:16:10;100849.32;;;-9.96;30.84
80640;BME280;69992;60.170;24.692;2023-12-14T00:18:36;100850.37;;;-10.00;30.86
80640;BME280;69992;60.170;24.692;2023-12-14T00:21:01;100850.15;;;-10.02;30.86
80640;BME280;69992;60.170;24.692;2023-12-14T00:23:27;100849.97;;;-10.01;30.86
80640;BME280;69992;60.170;24.692;2023-12-14T00:25:52;100849.47;;;-10.00;30.85
80640;BME280;69992;60.170;24.692;2023-12-14T00:28:17;100850.02;;;-10.01;30.85
80640;BME280;69992;60.170;24.692;2023-12-14T00:30:42;100852.11;;;-10.00;30.83
80640;BME280;69992;60.170;24.692;2023-12-14T00:33:07;100852.78;;;-10.03;30.85
80640;BME280;69992;60.170;24.692;2023-12-14T00:35:33;100854.65;;;-10.05;30.84
80640;BME280;69992;60.170;24.692;2023-12-14T00:37:58;100855.28;;;-10.06;30.86
80640;BME280;69992;60.170;24.692;2023-12-14T00:40:24;100858.67;;;-9.05;30.84
80640;BME280;69992;60.170;24.692;2023-12-14T00:42:50;100859.29;;;-10.03;30.85
80640;BME280;69992;60.170;24.692;2023-12-14T00:45:15;100864.41;;;-10.04;30.83
80640;BME280;69992;60.170;24.692;2023-12-14T00:47:41;100867.59;;;-10.02;30.83
80640;BME280;69992;60.170;24.692;2023-12-14T00:50:07;100868.70;;;-10.00;30.82
80640;BME280;69992;60.170;24.692;2023-12-14T00:52:31;100870.21;;;-10.02;30.81
80640;BME280;69992;60.170;24.692;2023-12-14T00:54:57;100873.24;;;-10.08;30.83
80640;BME280;69992;60.170;24.692;2023-12-14T00:57:22;100874.09;;;-10.09;30.83
80640;BME280;69992;60.170;24.692;2023-12-14T00:59:47;100874.44;;;-10.10;30.82
80640;BME280;69992;60.170;24.692;2023-12-14T01:02:13;100875.64;;;-10.14;30.83
80640;BME280;69992;60.170;24.692;2023-12-14T01:04:38;100879.04;;;-10.16;30.84
80640;BME280;69992;60.170;24.692;2023-12-14T01:07:03;100882.39;;;-10.19;30.84
80640;BME280;69992;60.170;24.692;2023-12-14T01:09:28;100884.84;;;-10.20;30.79
80640;BME280;69992;60.170;24.692;2023-12-14T01:11:53;100888.23;;;-8.26;30.82
80640;BME280;69992;60.170;24.692;2023-12-14T01:14:19;100889.44;;;-10.27;30.82
80640;BME280;69992;60.170;24.692;2023-12-14T01:16:45;100891.19;;;-10.27;30.82
80640;BME280;69992;60.170;24.692;2023-12-14T01:19:10;100895.26;;;-10.27;30.82
80640;BME280;69992;60.170;24.692;2023-12-14T01:21:35;100891.64;;;-9.25;30.80
80640;BME280;69992;60.170;24.692;2023-12-14T01:24:00;100891.50;;;-10.25;30.80
80640;BME280;69992;60.170;24.692;2023-12-14T01:26:26;100888.11;;;-10.18;30.76
80640;BME280;69992;60.170;24.692;2023-12-14T01:28:51;100891.25;;;-10.19;30.75
80640;BME280;69992;60.170;24.692;2023-12-14T01:31:16;100889.53;;;-9.27;30.77
80640;BME280;69992;60.170;24.692;2023-12-14T01:33:41;100887.95;;;-10.25;30.77
80640;BME280;69992;60.170;24.692;2023-12-14T01:36:07;100888.18;;;-10.26;30.79
80640;BME280;69992;60.170;24.692;2023-12-14T01:38:32;100890.42;;;-9.29;30.77
80640;BME280;69992;60.170;24.692;2023-12-14T01:40:57;100892.57;;;-10.29;30.77
80640;BME280;69992;60.170;24.692;2023-12-14T01:43:22;100895.08;;;-10.30;30.77
80640;BME280;69992;60.170;24.692;2023-12-14T01:45:48;100896.49;;;-10.31;30.77
80640;BME280;69992;60.170;24.692;2023-12-14T01:48:13;100900.16;;;-10.34;30.77
80640;BME280;69992;60.170;24.692;2023-12-14T01:50:39;100900.24;;;-10.42;30.80
80640;BME280;69992;60.170;24.692;2023-12-14T01:53:04;100900.73;;;-10.45;30.80
80640;BME280;69992;60.170;24.692;2023-12-14T01:55:30;100902.59;;;-10.42;30.79
80640;BME280;69992;60.170;24.692;2023-12-14T01:57:55;100906.74;;;-10.43;30.78
80640;BME280;69992;60.170;24.692;2023-12-14T02:00:26;100910.85;;;-10.46;30.78
80640;BME280;69992;60.170;24.692;2023-12-14T02:02:46;100910.44;;;-9.46;30.76
80640;BME280;69992;60.170;24.692;2023-12-14T02:05:11;100910.54;;;-10.47;30.78
80640;BME280;69992;60.170;24.692;2023-12-14T02:07:36;100912.00;;;-9.47;30.78
80640;BME280;69992;60.170;24.692;2023-12-14T02:10:01;100907.50;;;-9.49;30.78
80640;BME280;69992;60.170;24.692;2023-12-14T02:12:27;100908.20;;;-9.54;30.77
80640;BME280;69992;60.170;24.692;2023-12-14T02:14:51;100908.18;;;-10.53;30.79
80640;BME280;69992;60.170;24.692;2023-12-14T02:17:17;100912.68;;;-10.54;30.78
80640;BME280;69992;60.170;24.692;2023-12-14T02:19:42;100914.57;;;-8.56;30.78
80640;BME280;69992;60.170;24.692;2023-12-14T02:22:07;100916.30;;;-10.52;30.76
80640;BME280;69992;60.170;24.692;2023-12-14T02:24:32;100914.18;;;-10.67;30.79
80640;BME280;69992;60.170;24.692;2023-12-14T02:26:59;100916.27;;;-10.71;30.82
80640;BME280;69992;60.170;24.692;2023-12-14T02:29:24;100916.20;;;-9.68;30.80
80640;BME280;69992;60.170;24.692;2023-12-14T02:31:48;100913.05;;;-9.65;30.80
80640;BME280;69992;60.170;24.692;2023-12-14T02:34:14;100912.05;;;-9.62;30.80
80640;BME280;69992;60.170;24.692;2023-12-14T02:36:39;100915.38;;;-10.56;30.78
80640;BME280;69992;60.170;24.692;2023-12-14T02:39:04;100915.25;;;-10.57;30.78
80640;BME280;69992;60.170;24.692;2023-12-14T02:41:31;100917.39;;;-9.59;30.76
80640;BME280;69992;60.170;24.692;2023-12-14T02:43:55;100914.59;;;-10.56;30.76
80640;BME280;69992;60.170;24.692;2023-12-14T02:46:21;100911.84;;;-10.56;30.75
80640;BME280;69992;60.170;24.692;2023-12-14T02:48:46;100915.30;;;-10.54;30.76
80640;BME280;69992;60.170;24.692;2023-12-14T02:51:13;100916.80;;;-9.57;30.76
80640;BME280;69992;60.170;24.692;2023-12-14T02:53:37;100913.45;;;-11.60;30.75
80640;BME280;69992;60.170;24.692;2023-12-14T02:56:03;100913.26;;;-10.65;30.78
80640;BME280;69992;60.170;24.692;2023-12-14T02:58:28;100918.77;;;-9.64;30.77
80640;BME280;69992;60.170;24.692;2023-12-14T03:00:53;100916.92;;;-9.65;30.75
80640;BME280;69992;60.170;24.692;2023-12-14T03:03:19;100920.30;;;-10.76;30.72
80640;BME280;69992;60.170;24.692;2023-12-14T03:05:44;100920.71;;;-10.85;30.78
80640;BME280;69992;60.170;24.692;2023-12-14T03:08:10;100924.34;;;-9.87;30.79
80640;BME280;69992;60.170;24.692;2023-12-14T03:10:35;100925.94;;;-10.81;30.78
80640;BME280;69992;60.170;24.692;2023-12-14T03:13:00;100927.95;;;-10.81;30.77
80640;BME280;69992;60.170;24.692;2023-12-14T03:15:26;100927.64;;;-10.79;30.76
80640;BME280;69992;60.170;24.692;2023-12-14T03:17:51;100932.11;;;-10.77;30.74
80640;BME280;69992;60.170;24.692;2023-12-14T03:20:16;100932.41;;;-9.84;30.73
80640;BME280;69992;60.170;24.692;2023-12-14T03:22:41;100932.72;;;-10.86;30.74
80640;BME280;69992;60.170;24.692;2023-12-14T03:25:08;100934.75;;;-9.89;30.77
80640;BME280;69992;60.170;24.692;2023-12-14T03:27:31;100935.52;;;-10.85;30.75
80640;BME280;69992;60.170;24.692;2023-12-14T03:29:56;100932.89;;;-10.81;30.75
80640;BME280;69992;60.170;24.692;2023-12-14T03:32:21;100937.30;;;-10.79;30.73
80640;BME280;69992;60.170;24.692;2023-12-14T03:34:48;100938.91;;;-10.86;30.72
80640;BME280;69992;60.170;24.692;2023-12-14T03:37:13;100944.30;;;-10.08;30.77
80640;BME280;69992;60.170;24.692;2023-12-14T03:39:39;100945.12;;;-10.04;30.77
80640;BME280;69992;60.170;24.692;2023-12-14T03:42:04;100945.08;;;-9.05;30.77
80640;BME280;69992;60.170;24.692;2023-12-14T03:44:29;100945.83;;;-9.04;30.77
80640;BME280;69992;60.170;24.692;2023-12-14T03:46:54;100944.60;;;-10.96;30.77
80640;BME280;69992;60.170;24.692;2023-12-14T03:49:19;100945.90;;;-9.93;30.75
80640;BME280;69992;60.170;24.692;2023-12-14T03:51:45;100946.33;;;-10.86;30.73
80640;BME280;69992;60.170;24.692;2023-12-14T03:54:10;100947.81;;;-10.84;30.73
80640;BME280;69992;60.170;24.692;2023-12-14T03:56:35;100952.05;;;-10.88;30.72
80640;BME280;69992;60.170;24.692;2023-12-14T03:59:01;100954.24;;;-9.94;30.74
80640;BME280;69992;60.170;24.692;2023-12-14T04:01:26;100952.63;;;-9.94;30.73
80640;BME280;69992;60.170;24.692;2023-12-14T04:03:51;100951.62;;;-10.95;30.75
80640;BME280;69992;60.170;24.692;2023-12-14T04:06:16;100950.23;;;-9.98;30.75
80640;BME280;69992;60.170;24.692;2023-12-14T04:08:41;100951.40;;;-10.95;30.74
80640;BME280;69992;60.170;24.692;2023-12-14T04:11:07;100954.49;;;-10.94;30.73
80640;BME280;69992;60.170;24.692;2023-12-14T04:13:32;100956.55;;;-10.92;30.71
80640;BME280;69992;60.170;24.692;2023-12-14T04:15:57;100958.01;;;-9.95;30.71
80640;BME280;69992;60.170;24.692;2023-12-14T04:18:22;100958.58;;;-9.95;30.70
80640;BME280;69992;60.170;24.692;2023-12-14T04:20:48;100958.64;;;-9.95;30.71
80640;BME280;69992;60.170;24.692;2023-12-14T04:23:13;100958.15;;;-10.95;30.72
80640;BME280;69992;60.170;24.692;2023-12-14T04:25:38;100954.94;;;-10.95;30.72
80640;BME280;69992;60.170;24.692;2023-12-14T04:28:03;100955.98;;;-10.98;30.71
80640;BME280;69992;60.170;24.692;2023-12-14T04:30:28;100958.41;;;-11.02;30.72
80640;BME280;69992;60.170;24.692;2023-12-14T04:32:54;100962.90;;;-10.04;30.72
80640;BME280;69992;60.170;24.692;2023-12-14T04:35:19;100966.49;;;-10.97;30.72
80640;BME280;69992;60.170;24.692;2023-12-14T04:37:44;100968.38;;;-9.97;30.71
80640;BME280;69992;60.170;24.692;2023-12-14T04:40:11;100970.12;;;-9.95;30.70
80640;BME280;69992;60.170;24.692;2023-12-14T04:42:35;100974.00;;;-10.92;30.70
80640;BME280;69992;60.170;24.692;2023-12-14T04:45:00;100974.34;;;-9.95;30.70
80640;BME280;69992;60.170;24.692;2023-12-14T04:47:25;100974.36;;;-9.93;30.67
80640;BME280;69992;60.170;24.692;2023-12-14T04:49:50;100974.64;;;-8.96;30.68
80640;BME280;69992;60.170;24.692;2023-12-14T04:52:16;100976.96;;;-10.91;30.69
80640;BME280;69992;60.170;24.692;2023-12-14T04:54:41;100975.53;;;-10.90;30.69
80640;BME280;69992;60.170;24.692;2023-12-14T04:57:06;100978.33;;;-10.86;30.69
80640;BME280;69992;60.170;24.692;2023-12-14T04:59:31;100981.79;;;-9.90;30.68
80640;BME280;69992;60.170;24.692;2023-12-14T05:01:56;100981.69;;;-10.89;30.68
80640;BME280;69992;60.170;24.692;2023-12-14T05:04:22;100982.65;;;-10.90;30.68
80640;BME280;69992;60.170;24.692;2023-12-14T05:06:47;100985.36;;;-10.92;30.68
80640;BME280;69992;60.170;24.692;2023-12-14T05:09:12;100986.45;;;-10.96;30.69
80640;BME280;69992;60.170;24.692;2023-12-14T05:11:39;100987.73;;;-10.00;30.71
80640;BME280;69992;60.170;24.692;2023-12-14T05:14:03;100986.81;;;-10.95;30.71
80640;BME280;69992;60.170;24.692;2023-12-14T05:16:29;100987.37;;;-10.94;30.69
80640;BME280;69992;60.170;24.692;2023-12-14T05:18:54;100987.93;;;-10.00;30.69
80640;BME280;69992;60.170;24.692;2023-12-14T05:21:19;100988.49;;;-10.02;30.68
80640;BME280;69992;60.170;24.692;2023-12-14T05:23:44;100990.03;;;-10.02;30.68
80640;BME280;69992;60.170;24.692;2023-12-14T05:26:09;100990.62;;;-10.06;30.68
80640;BME280;69992;60.170;24.692;2023-12-14T05:28:35;100992.67;;;-10.12;30.68
80640;BME280;69992;60.170;24.692;2023-12-14T05:31:00;100994.57;;;-10.27;30.70
80640;BME280;69992;60.170;24.692;2023-12-14T05:33:26;100997.25;;;-9.33;30.71
80640;BME280;69992;60.170;24.692;2023-12-14T05:35:51;100997.81;;;-9.47;30.71
80640;BME280;69992;60.170;24.692;2023-12-14T05:38:16;100999.57;;;-9.56;30.74
80640;BME280;69992;60.170;24.692;2023-12-14T05:40:42;100999.46;;;-10.56;30.75
80640;BME280;69992;60.170;24.692;2023-12-14T05:43:07;101001.99;;;-11.44;30.74
80640;BME280;69992;60.170;24.692;2023-12-14T05:45:32;101006.42;;;-11.40;30.74
80640;BME280;69992;60.170;24.692;2023-12-14T05:47:57;101010.12;;;-11.35;30.73
80640;BME280;69992;60.170;24.692;2023-12-14T05:50:22;101014.33;;;-10.36;30.72
80640;BME280;69992;60.170;24.692;2023-12-14T05:52:48;101017.94;;;-11.30;30.71
80640;BME280;69992;60.170;24.692;2023-12-14T05:55:14;101019.13;;;-10.22;30.68
80640;BME280;69992;60.170;24.692;2023-12-14T05:57:39;101023.30;;;-9.22;30.68
80640;BME280;69992;60.170;24.692;2023-12-14T06:00:06;101022.59;;;-10.19;30.67
80640;BME280;69992;60.170;24.692;2023-12-14T06:02:29;101020.50;;;-10.14;30.66
80640;BME280;69992;60.170;24.692;2023-12-14T06:04:54;101022.13;;;-11.10;30.65
80640;BME280;69992;60.170;24.692;2023-12-14T06:07:19;101022.46;;;-11.09;30.65
80640;BME280;69992;60.170;24.692;2023-12-14T06:09:44;101024.61;;;-10.10;30.65
80640;BME280;69992;60.170;24.692;2023-12-14T06:12:10;101031.22;;;-10.11;30.66
80640;BME280;69992;60.170;24.692;2023-12-14T06:14:35;101033.27;;;-10.10;30.66
80640;BME280;69992;60.170;24.692;2023-12-14T06:17:00;101031.95;;;-10.11;30.66
80640;BME280;69992;60.170;24.692;2023-12-14T06:19:25;101032.71;;;-11.06;30.65
80640;BME280;69992;60.170;24.692;2023-12-14T06:21:51;101033.69;;;-11.04;30.64
80640;BME280;69992;60.170;24.692;2023-12-14T06:24:17;101034.88;;;-10.02;30.62
80640;BME280;69992;60.170;24.692;2023-12-14T06:26:43;101033.01;;;-9.99;30.61
80640;BME280;69992;60.170;24.692;2023-12-14T06:29:07;101033.87;;;-10.96;30.58
80640;BME280;69992;60.170;24.692;2023-12-14T06:31:32;101033.25;;;-10.02;30.59
80640;BME280;69992;60.170;24.692;2023-12-14T06:33:57;101032.84;;;-10.94;30.61
80640;BME280;69992;60.170;24.692;2023-12-14T06:36:23;101031.23;;;-9.89;30.57
80640;BME280;69992;60.170;24.692;2023-12-14T06:38:48;101033.66;;;-9.91;30.59
80640;BME280;69992;60.170;24.692;2023-12-14T06:41:19;101035.48;;;-8.95;30.60
80640;BME280;69992;60.170;24.692;2023-12-14T06:43:39;101042.10;;;-10.88;30.57
80640;BME280;69992;60.170;24.692;2023-12-14T06:46:04;101047.25;;;-9.93;30.57
80640;BME280;69992;60.170;24.692;2023-12-14T06:48:29;101050.32;;;-10.03;30.59
80640;BME280;69992;60.170;24.692;2023-12-14T06:50:55;101051.86;;;-10.07;30.62
80640;BME280;69992;60.170;24.692;2023-12-14T06:53:20;101052.28;;;-10.07;30.64
80640;BME280;69992;60.170;24.692;2023-12-14T06:55:45;101053.49;;;-11.04;30.64
80640;BME280;69992;60.170;24.692;2023-12-14T06:58:10;101056.59;;;-11.05;30.64
80640;BME280;69992;60.170;24.692;2023-12-14T07:00:36;101060.59;;;-10.07;30.65
80640;BME280;69992;60.170;24.692;2023-12-14T07:03:01;101061.47;;;-11.03;30.63
80640;BME280;69992;60.170;24.692;2023-12-14T07:05:27;101061.30;;;-10.10;30.63
80640;BME280;69992;60.170;24.692;2023-12-14T07:07:53;101063.10;;;-10.09;30.63
80640;BME280;69992;60.170;24.692;2023-12-14T07:10:19;101065.17;;;-11.04;30.64
80640;BME280;69992;60.170;24.692;2023-12-14T07:12:43;101069.62;;;-9.06;30.64
80640;BME280;69992;60.170;24.692;2023-12-14T07:15:09;101069.66;;;-10.98;30.64
80640;BME280;69992;60.170;24.692;2023-12-14T07:17:34;101070.80;;;-11.01;30.62
80640;BME280;69992;60.170;24.692;2023-12-14T07:19:59;101070.86;;;-11.01;30.64
80640;BME280;69992;60.170;24.692;2023-12-14T07:22:24;101068.89;;;-10.02;30.63
80640;BME280;69992;60.170;24.692;2023-12-14T07:24:49;101069.66;;;-10.99;30.64
80640;BME280;69992;60.170;24.692;2023-12-14T07:27:14;101073.96;;;-10.99;30.65
80640;BME280;69992;60.170;24.692;2023-12-14T07:29:39;101080.00;;;-10.02;30.64
80640;BME280;69992;60.170;24.692;2023-12-14T07:32:06;101080.59;;;-10.08;30.66
80640;BME280;69992;60.170;24.692;2023-12-14T07:34:30;101081.30;;;-9.11;30.67
80640;BME280;69992;60.170;24.692;2023-12-14T07:36:56;101082.62;;;-10.06;30.66
80640;BME280;69992;60.170;24.692;2023-12-14T07:39:21;101087.25;;;-10.97;30.64
80640;BME280;69992;60.170;24.692;2023-12-14T07:41:46;101089.12;;;-11.04;30.63
80640;BME280;69992;60.170;24.692;2023-12-14T07:44:11;101088.31;;;-10.12;30.67
80640;BME280;69992;60.170;24.692;2023-12-14T07:46:37;101092.26;;;-10.20;30.68
80640;BME280;69992;60.170;24.692;2023-12-14T07:49:03;101093.31;;;-10.21;30.71
80640;BME280;69992;60.170;24.692;2023-12-14T07:51:29;101093.45;;;-10.17;30.70
80640;BME280;69992;60.170;24.692;2023-12-14T07:53:54;101094.68;;;-9.12;30.68
80640;BME280;69992;60.170;24.692;2023-12-14T07:56:19;101097.75;;;-9.07;30.66
80640;BME280;69992;60.170;24.692;2023-12-14T07:58:44;101102.32;;;-11.00;30.65
80640;BME280;69992;60.170;24.692;2023-12-14T08:01:09;101102.47;;;-10.99;30.64
80640;BME280;69992;60.170;24.692;2023-12-14T08:03:35;101106.96;;;-10.97;30.64
80640;BME280;69992;60.170;24.692;2023-12-14T08:06:00;101108.35;;;-9.95;30.65
80640;BME280;69992;60.170;24.692;2023-12-14T08:08:26;101109.31;;;-8.90;30.64
80640;BME280;69992;60.170;24.692;2023-12-14T08:10:51;101108.14;;;-10.80;30.63
80640;BME280;69992;60.170;24.692;2023-12-14T08:13:16;101108.53;;;-8.81;30.61
80640;BME280;69992;60.170;24.692;2023-12-14T08:15:41;101110.17;;;-9.78;30.63
80640;BME280;69992;60.170;24.692;2023-12-14T08:18:07;101111.66;;;-10.71;30.63
80640;BME280;69992;60.170;24.692;2023-12-14T08:20:32;101116.25;;;-10.66;30.63
80640;BME280;69992;60.170;24.692;2023-12-14T08:22:58;101118.86;;;-8.68;30.62
80640;BME280;69992;60.170;24.692;2023-12-14T08:25:23;101124.14;;;-9.63;30.62
80640;BME280;69992;60.170;24.692;2023-12-14T08:27:49;101128.78;;;-10.61;30.62
80640;BME280;69992;60.170;24.692;2023-12-14T08:30:14;101130.73;;;-10.58;30.64
80640;BME280;69992;60.170;24.692;2023-12-14T08:32:39;101132.80;;;-10.56;30.64
80640;BME280;69992;60.170;24.692;2023-12-14T08:35:05;101134.02;;;-8.60;30.65
80640;BME280;69992;60.170;24.692;2023-12-14T08:37:30;101135.82;;;-10.50;30.64
80640;BME280;69992;60.170;24.692;2023-12-14T08:39:55;101138.06;;;-10.45;30.62
80640;BME280;69992;60.170;24.692;2023-12-14T08:42:20;101143.58;;;-10.45;30.61
80640;BME280;69992;60.170;24.692;2023-12-14T08:44:46;101141.82;;;-10.38;30.61
80640;BME280;69992;60.170;24.692;2023-12-14T08:47:11;101142.71;;;-10.33;30.62
80640;BME280;69992;60.170;24.692;2023-12-14T08:49:36;101141.90;;;-10.30;30.63
80640;BME280;69992;60.170;24.692;2023-12-14T08:52:02;101147.54;;;-10.30;30.65
80640;BME280;69992;60.170;24.692;2023-12-14T08:54:27;101149.28;;;-10.28;30.66
80640;BME280;69992;60.170;24.692;2023-12-14T08:56:52;101149.98;;;-10.27;30.66
80640;BME280;69992;60.170;24.692;2023-12-14T08:59:17;101149.96;;;-10.35;30.65
80640;BME280;69992;60.170;24.692;2023-12-14T09:01:43;101149.33;;;-10.39;30.67
80640;BME280;69992;60.170;24.692;2023-12-14T09:04:08;101151.05;;;-10.35;30.69
80640;BME280;69992;60.170;24.692;2023-12-14T09:06:33;101152.40;;;-10.32;30.69
80640;BME280;69992;60.170;24.692;2023-12-14T09:08:59;101148.90;;;-10.27;30.67
80640;BME280;69992;60.170;24.692;2023-12-14T09:11:25;101151.07;;;-10.24;30.68
80640;BME280;69992;60.170;24.692;2023-12-14T09:13:50;101149.27;;;-10.20;30.68
80640;BME280;69992;60.170;24.692;2023-12-14T09:16:15;101153.48;;;-9.18;30.68
80640;BME280;69992;60.170;24.692;2023-12-14T09:18:40;101156.06;;;-9.10;30.66
80640;BME280;69992;60.170;24.692;2023-12-14T09:21:06;101158.30;;;-11.03;30.66
80640;BME280;69992;60.170;24.692;2023-12-14T09:23:32;101165.66;;;-10.03;30.67
80640;BME280;69992;60.170;24.692;2023-12-14T09:25:57;101167.27;;;-9.99;30.67
80640;BME280;69992;60.170;24.692;2023-12-14T09:28:23;101169.92;;;-10.00;30.67
80640;BME280;69992;60.170;24.692;2023-12-14T09:30:48;101169.79;;;-10.09;30.66
80640;BME280;69992;60.170;24.692;2023-12-14T09:33:13;101170.45;;;-10.19;30.70
80640;BME280;69992;60.170;24.692;2023-12-14T09:35:38;101169.82;;;-10.19;30.72
80640;BME280;69992;60.170;24.692;2023-12-14T09:38:06;101172.32;;;-10.15;30.73
80640;BME280;69992;60.170;24.692;2023-12-14T09:40:29;101172.47;;;-10.09;30.71
80640;BME280;69992;60.170;24.692;2023-12-14T09:42:56;101174.21;;;-10.08;30.72
80640;BME280;69992;60.170;24.692;2023-12-14T09:45:20;101176.60;;;-10.02;30.70
80640;BME280;69992;60.170;24.692;2023-12-14T09:47:45;101174.88;;;-9.98;30.70
80640;BME280;69992;60.170;24.692;2023-12-14T09:50:10;101174.21;;;-9.94;30.69
80640;BME280;69992;60.170;24.692;2023-12-14T09:52:35;101173.97;;;-9.91;30.69
80640;BME280;69992;60.170;24.692;2023-12-14T09:55:00;101169.61;;;-9.86;30.68
80640;BME280;69992;60.170;24.692;2023-12-14T09:57:26;101168.15;;;-9.84;30.68
80640;BME280;69992;60.170;24.692;2023-12-14T09:59:52;101172.20;;;-9.80;30.70
80640;BME280;69992;60.170;24.692;2023-12-14T10:02:16;101173.10;;;-9.74;30.69
80640;BME280;69992;60.170;24.692;2023-12-14T10:04:43;101176.30;;;-9.68;30.69
80640;BME280;69992;60.170;24.692;2023-12-14T10:07:07;101174.30;;;-10.63;30.68
80640;BME280;69992;60.170;24.692;2023-12-14T10:09:33;101178.21;;;-9.66;30.69
80640;BME280;69992;60.170;24.692;2023-12-14T10:12:03;101181.29;;;-9.65;30.69
80640;BME280;69992;60.170;24.692;2023-12-14T10:14:24;101183.88;;;-9.68;30.67
80640;BME280;69992;60.170;24.692;2023-12-14T10:16:50;101187.13;;;-9.75;30.68
80640;BME280;69992;60.170;24.692;2023-12-14T10:19:13;101183.39;;;-9.73;30.70
80640;BME280;69992;60.170;24.692;2023-12-14T10:21:39;101185.79;;;-9.70;30.70
80640;BME280;69992;60.170;24.692;2023-12-14T10:24:05;101184.80;;;-9.68;30.71
80640;BME280;69992;60.170;24.692;2023-12-14T10:26:31;101186.61;;;-9.65;30.69
80640;BME280;69992;60.170;24.692;2023-12-14T10:28:55;101186.08;;;-10.57;30.68
80640;BME280;69992;60.170;24.692;2023-12-14T10:31:20;101190.58;;;-11.88;30.05
80640;BME280;69992;60.170;24.692;2023-12-14T10:33:46;101192.30;;;-9.08;29.91
80640;BME280;69992;60.170;24.692;2023-12-14T10:36:11;101188.51;;;-9.66;30.21
80640;BME280;69992;60.170;24.692;2023-12-14T10:38:37;101191.09;;;-9.94;30.39
80640;BME280;69992;60.170;24.692;2023-12-14T10:41:02;101190.69;;;-9.13;30.48
80640;BME280;69992;60.170;24.692;2023-12-14T10:43:27;101188.27;;;-9.26;30.55
80640;BME280;69992;60.170;24.692;2023-12-14T10:45:52;101181.78;;;-9.33;30.60
80640;BME280;69992;60.170;24.692;2023-12-14T10:48:17;101185.42;;;-10.38;30.63
80640;BME280;69992;60.170;24.692;2023-12-14T10:50:43;101188.17;;;-9.42;30.65
80640;BME280;69992;60.170;24.692;2023-12-14T10:53:09;101189.87;;;-9.43;30.66
80640;BME280;69992;60.170;24.692;2023-12-14T10:55:38;101190.52;;;-9.43;30.68
80640;BME280;69992;60.170;24.692;2023-12-14T10:58:00;101189.57;;;-9.40;30.67
80640;BME280;69992;60.170;24.692;2023-12-14T11:00:26;101189.85;;;-9.38;30.69
80640;BME280;69992;60.170;24.692;2023-12-14T11:02:52;101190.88;;;-9.32;30.67
80640;BME280;69992;60.170;24.692;2023-12-14T11:05:17;101192.24;;;-9.27;30.67
80640;BME280;69992;60.170;24.692;2023-12-14T11:07:46;101191.02;;;-9.23;30.67
80640;BME280;69992;60.170;24.692;2023-12-14T11:10:07;101188.55;;;-9.23;30.67
80640;BME280;69992;60.170;24.692;2023-12-14T11:12:33;101186.95;;;-9.23;30.69
80640;BME280;69992;60.170;24.692;2023-12-14T11:14:57;101186.59;;;-10.16;30.68
80640;BME280;69992;60.170;24.692;2023-12-14T11:17:23;101188.21;;;-9.19;30.70
80640;BME280;69992;60.170;24.692;2023-12-14T11:19:49;101190.36;;;-9.16;30.72
80640;BME280;69992;60.170;24.692;2023-12-14T11:22:24;101190.12;;;-9.14;30.73
80640;BME280;69992;60.170;24.692;2023-12-14T11:24:42;101188.29;;;-9.11;30.71
80640;BME280;69992;60.170;24.692;2023-12-14T11:27:06;101184.41;;;-10.09;30.72
80640;BME280;69992;60.170;24.692;2023-12-14T11:29:30;101178.00;;;-9.11;30.72
80640;BME280;69992;60.170;24.692;2023-12-14T11:31:56;101177.59;;;-9.12;30.74
80640;BME280;69992;60.170;24.692;2023-12-14T11:34:24;101181.67;;;-10.08;30.73
80640;BME280;69992;60.170;24.692;2023-12-14T11:36:48;101188.16;;;-9.06;30.71
80640;BME280;69992;60.170;24.692;2023-12-14T11:39:11;101189.93;;;-9.08;30.72
80640;BME280;69992;60.170;24.692;2023-12-14T11:41:37;101192.27;;;-9.11;30.73
80640;BME280;69992;60.170;24.692;2023-12-14T11:44:02;101192.30;;;-10.09;30.75
80640;BME280;69992;60.170;24.692;2023-12-14T11:46:28;101194.61;;;-10.09;30.74
80640;BME280;69992;60.170;24.692;2023-12-14T11:48:53;101198.01;;;-10.09;30.75
80640;BME280;69992;60.170;24.692;2023-12-14T11:51:18;101199.77;;;-9.11;30.74
80640;BME280;69992;60.170;24.692;2023-12-14T11:53:45;101202.80;;;-9.09;30.76
80640;BME280;69992;60.170;24.692;2023-12-14T11:56:09;101205.46;;;-9.09;30.75
80640;BME280;69992;60.170;24.692;2023-12-14T11:58:35;101207.55;;;-9.10;30.76
80640;BME280;69992;60.170;24.692;2023-12-14T12:01:11;101212.60;;;-10.10;30.77
80640;BME280;69992;60.170;24.692;2023-12-14T12:03:25;101211.84;;;-9.06;30.75
80640;BME280;69992;60.170;24.692;2023-12-14T12:05:51;101217.20;;;-9.07;30.75
80640;BME280;69992;60.170;24.692;2023-12-14T12:08:19;101220.99;;;-9.04;30.76
80640;BME280;69992;60.170;24.692;2023-12-14T12:10:43;101222.27;;;-9.02;30.73
80640;BME280;69992;60.170;24.692;2023-12-14T12:13:08;101223.50;;;-9.97;30.74
80640;BME280;69992;60.170;24.692;2023-12-14T12:15:33;101223.12;;;-8.94;30.74
80640;BME280;69992;60.170;24.692;2023-12-14T12:17:57;101220.38;;;-8.97;30.74
80640;BME280;69992;60.170;24.692;2023-12-14T12:20:23;101220.31;;;-9.03;30.74
80640;BME280;69992;60.170;24.692;2023-12-14T12:22:48;101215.52;;;-9.04;30.76